Paul — V2GQ7 — position and weather

sailwx.info

Track history (hours):
 
Tides and Currents Weather Stations Pressure Air Temp Water Temp Dewpoint Dewpoint Depression Visibility Wind Speed Wind Dir Waves Ship Positions

Paul

Last reported at 2018-Aug-15 02:16 UTC. Time now 2018-Aug-15 02:58 UTC.
Position N 51°50' W 007°04'.

Length 83 m; draft 6.1 m.

Type: Cargo ship. MMSI: 304052000.

Date/timePositionNaut miles runAvg speedWind from/ knotsBaromVisibWave heightAir tempDewpointWater temp
2018-Aug-15 02:16N 51°50' W 007°04'1110.0
2018-Aug-15 01:10N 51°39' W 007°07'210.1
2018-Aug-15 01:00N 51°37' W 007°08'510.1
2018-Aug-15 00:30N 51°32' W 007°09'7810.3
2018-Aug-14 16:55N 50°15' W 007°34'  
2018-Aug-11 23:55N 39°44' W 009°43'4 9.6
2018-Aug-11 23:30N 39°40' W 009°43'5 9.5
2018-Aug-11 23:00N 39°35' W 009°43'5 9.3
2018-Aug-11 22:30N 39°30' W 009°43'5 9.0
2018-Aug-11 21:59N 39°26' W 009°43'5 8.7
2018-Aug-11 21:23N 39°21' W 009°43'4 8.9
2018-Aug-11 20:59N 39°17' W 009°43'4 8.9
2018-Aug-11 20:30N 39°13' W 009°43'5 9.1
2018-Aug-11 20:00N 39°08' W 009°42'4 8.9
2018-Aug-11 19:30N 39°04' W 009°42'4 8.6
2018-Aug-11 19:00N 38°59' W 009°42'4 8.7
2018-Aug-11 18:31N 38°55' W 009°42'4 8.9
2018-Aug-11 18:00N 38°51' W 009°42'4 8.3
2018-Aug-11 17:31N 38°46' W 009°42'4 8.2
2018-Aug-11 17:00N 38°42' W 009°41'4 7.5
2018-Aug-11 16:30N 38°39' W 009°39'5 9.4
2018-Aug-11 16:01N 38°38' W 009°33'5 9.1
2018-Aug-11 15:30N 38°37' W 009°27'4 8.6
2018-Aug-11 15:00N 38°38' W 009°22'5 9.1
2018-Aug-11 14:30N 38°41' W 009°17'4 7.8
2018-Aug-11 14:00N 38°41' W 009°12'4 7.5
2018-Aug-11 13:30N 38°42' W 009°08'3 5.1
2018-Aug-11 13:00N 38°44' W 009°06'0 0.0
2018-Aug-11 12:23N 38°44' W 009°06'0 0.0
2018-Aug-11 11:59N 38°44' W 009°06'0 0.0
2018-Aug-11 11:29N 38°44' W 009°06'0 0.0
2018-Aug-11 10:59N 38°44' W 009°06'0 0.0
2018-Aug-11 10:29N 38°44' W 009°06'0 0.0
2018-Aug-11 09:59N 38°44' W 009°06'0 0.0
2018-Aug-11 09:26N 38°44' W 009°06'0 0.0
2018-Aug-11 08:44N 38°44' W 009°06'0 0.0
2018-Aug-11 08:29N 38°44' W 009°06'0 0.0
2018-Aug-11 07:59N 38°44' W 009°06'0 0.0
2018-Aug-11 07:26N 38°44' W 009°06'0 0.0
2018-Aug-11 06:53N 38°44' W 009°06'0 0.0
2018-Aug-11 05:47N 38°44' W 009°06'0 0.0
2018-Aug-11 05:23N 38°44' W 009°06'0 0.0
2018-Aug-11 04:56N 38°44' W 009°06'0 0.0
2018-Aug-11 04:23N 38°44' W 009°06'0 0.0
2018-Aug-11 03:47N 38°44' W 009°06'0 0.0
2018-Aug-11 02:44N 38°44' W 009°06'0 0.0
2018-Aug-11 02:20N 38°44' W 009°06'0 0.0
2018-Aug-11 01:44N 38°44' W 009°06'0 0.0
2018-Aug-11 00:20N 38°44' W 009°06'0 0.0
2018-Aug-10 23:59N 38°44' W 009°06'0 0.0
2018-Aug-10 23:11N 38°44' W 009°06'0 0.0
2018-Aug-10 22:59N 38°44' W 009°06'0 0.0
2018-Aug-10 22:29N 38°44' W 009°06'0 0.0
2018-Aug-10 21:59N 38°44' W 009°06'0 0.0
2018-Aug-10 21:29N 38°44' W 009°06'0 0.0
2018-Aug-10 20:56N 38°44' W 009°06'0 0.0
2018-Aug-10 20:08N 38°44' W 009°06'0 0.0
2018-Aug-10 19:59N 38°44' W 009°06'0 0.0
2018-Aug-10 19:29N 38°44' W 009°06'0 0.0
2018-Aug-10 18:59N 38°44' W 009°06'0 0.0
2018-Aug-10 18:29N 38°44' W 009°06'0 0.0
2018-Aug-10 17:32N 38°44' W 009°06'0 0.0
2018-Aug-10 17:20N 38°44' W 009°06'0 0.0
2018-Aug-10 16:59N 38°44' W 009°06'0 0.0
2018-Aug-10 16:29N 38°44' W 009°06'0 0.0
2018-Aug-10 15:59N 38°44' W 009°06'0 0.0
2018-Aug-10 15:29N 38°44' W 009°06'0 0.0
2018-Aug-10 14:59N 38°44' W 009°06'0 0.0
2018-Aug-10 14:26N 38°44' W 009°06'0 0.0
2018-Aug-10 13:59N 38°44' W 009°06'0 0.0
2018-Aug-10 13:29N 38°44' W 009°06'0 0.0
2018-Aug-10 12:59N 38°44' W 009°06'0 0.0
2018-Aug-10 12:29N 38°44' W 009°06'0 0.0
2018-Aug-10 11:53N 38°44' W 009°06'0 0.0
2018-Aug-10 11:26N 38°44' W 009°06'0 0.0
2018-Aug-10 10:53N 38°44' W 009°06'0 0.0
2018-Aug-10 10:29N 38°44' W 009°06'0 0.0
2018-Aug-10 09:59N 38°44' W 009°06'0 0.0
2018-Aug-10 09:29N 38°44' W 009°06'0 0.0
2018-Aug-10 08:59N 38°44' W 009°06'0 0.0
2018-Aug-10 08:26N 38°44' W 009°06'0 0.0
2018-Aug-10 07:50N 38°44' W 009°06'0 0.0
2018-Aug-10 07:26N 38°44' W 009°06'0 0.0
2018-Aug-10 06:59N 38°44' W 009°06'0 0.0
2018-Aug-10 06:29N 38°44' W 009°06'0 0.0
2018-Aug-10 05:59N 38°44' W 009°06'0 0.0
2018-Aug-10 05:26N 38°44' W 009°06'0 0.0
2018-Aug-10 04:59N 38°44' W 009°06'0 0.0
2018-Aug-10 04:29N 38°44' W 009°06'0 0.0
2018-Aug-10 03:59N 38°44' W 009°06'0 0.0
2018-Aug-10 03:29N 38°44' W 009°06'0 0.0
2018-Aug-10 02:59N 38°44' W 009°06'0 0.0
2018-Aug-10 02:29N 38°44' W 009°06'0 0.0
2018-Aug-10 01:56N 38°44' W 009°06'0 0.0
2018-Aug-10 01:26N 38°44' W 009°06'0 0.0
2018-Aug-10 00:59N 38°44' W 009°06'0 0.0
2018-Aug-10 00:29N 38°44' W 009°06'0 0.0
2018-Aug-09 23:56N 38°44' W 009°06'0 0.0
2018-Aug-09 23:29N 38°44' W 009°06'0 0.0
2018-Aug-09 22:56N 38°44' W 009°06'0 0.0
2018-Aug-09 22:26N 38°44' W 009°06'0 0.0
2018-Aug-09 21:59N 38°44' W 009°06'0 0.0
2018-Aug-09 21:29N 38°44' W 009°06'0 0.0
2018-Aug-09 20:05N 38°44' W 009°06'0 0.0
2018-Aug-09 19:53N 38°44' W 009°06'0 0.0
2018-Aug-09 18:35N 38°44' W 009°06'0 0.0
2018-Aug-09 17:29N 38°44' W 009°06'0 0.0
2018-Aug-09 16:47N 38°44' W 009°06'0 0.0
2018-Aug-09 16:26N 38°44' W 009°06'0 0.0
2018-Aug-09 15:59N 38°44' W 009°06'0 0.0
2018-Aug-09 15:29N 38°44' W 009°06'0 0.0
2018-Aug-09 14:38N 38°44' W 009°06'0 0.0
2018-Aug-09 14:29N 38°44' W 009°06'0 0.0
2018-Aug-09 13:53N 38°44' W 009°06'0 0.0
2018-Aug-09 13:11N 38°44' W 009°06'0 0.0
2018-Aug-09 12:59N 38°44' W 009°06'0 0.0
2018-Aug-09 09:17N 38°44' W 009°06'0 0.0
2018-Aug-09 08:59N 38°44' W 009°06'0 0.0
2018-Aug-09 07:35N 38°44' W 009°06'0 0.0
2018-Aug-08 22:44N 38°44' W 009°06'0 0.0
2018-Aug-08 22:17N 38°44' W 009°06'0 0.0
2018-Aug-08 21:53N 38°44' W 009°06'0 0.0
2018-Aug-08 21:26N 38°44' W 009°06'0 0.0
2018-Aug-08 19:23N 38°44' W 009°06'0 0.0
2018-Aug-08 18:53N 38°44' W 009°06'0 0.0
2018-Aug-08 18:29N 38°44' W 009°06'0 0.0
2018-Aug-08 17:59N 38°44' W 009°06'0 0.0
2018-Aug-08 17:29N 38°44' W 009°06'0 0.0
2018-Aug-08 16:26N 38°44' W 009°06'0 0.0
2018-Aug-08 15:59N 38°44' W 009°06'0 0.0
2018-Aug-08 15:29N 38°44' W 009°06'0 0.0
2018-Aug-08 14:59N 38°44' W 009°06'0 0.0
2018-Aug-08 14:29N 38°44' W 009°06'2 3.7
2018-Aug-08 14:00N 38°43' W 009°07'5 9.4
2018-Aug-08 13:28N 38°41' W 009°13'3 7.1
2018-Aug-08 13:00N 38°41' W 009°18'5 9.5
2018-Aug-08 12:30N 38°37' W 009°22'5 9.1
2018-Aug-08 12:00N 38°33' W 009°24'510.0
2018-Aug-08 11:30N 38°28' W 009°23'510.0
2018-Aug-08 11:00N 38°23' W 009°24'510.0
2018-Aug-08 10:30N 38°18' W 009°24'510.0
2018-Aug-08 09:59N 38°13' W 009°23'5 9.7
2018-Aug-08 09:30N 38°08' W 009°23'5 9.7
2018-Aug-08 09:00N 38°03' W 009°23'5 9.8
2018-Aug-08 08:30N 37°58' W 009°23'510.0
2018-Aug-08 08:00N 37°54' W 009°23'5 9.9
2018-Aug-08 07:29N 37°48' W 009°23'5 9.7
2018-Aug-08 06:59N 37°43' W 009°22'7 9.7
2018-Aug-08 06:18N 37°37' W 009°22'15 8.7
2018-Aug-08 04:34N 37°22' W 009°21'2 7.3
2018-Aug-08 04:14N 37°19' W 009°21'35 6.2
2018-Aug-07 22:32N 36°46' W 009°09'0 6.3
2018-Aug-07 22:29N 36°45' W 009°08'4 7.5
2018-Aug-07 22:00N 36°44' W 009°04'12 8.5
2018-Aug-07 20:37N 36°44' W 008°49'1 8.4
2018-Aug-07 20:29N 36°44' W 008°48'4 8.1
2018-Aug-07 20:00N 36°44' W 008°43'4 8.5
2018-Aug-07 19:30N 36°44' W 008°38'4 8.7
2018-Aug-07 19:00N 36°44' W 008°32'5 9.3
2018-Aug-07 18:30N 36°44' W 008°26'5 9.1
2018-Aug-07 17:59N 36°44' W 008°21'11 8.8
2018-Aug-07 16:43N 36°44' W 008°07'3 8.6
2018-Aug-07 16:22N 36°45' W 008°03'3 8.7
2018-Aug-07 16:00N 36°45' W 007°59'  
Track history (hours):
 
Tides and Currents Weather Stations Pressure Air Temp Water Temp Dewpoint Dewpoint Depression Visibility Wind Speed Wind Dir Waves Ship Positions

Paul

Last reported at 2018-Aug-15 02:16 UTC. Time now 2018-Aug-15 02:58 UTC.
Position N 51°50' W 007°04'.

Length 83 m; draft 6.1 m.

Type: Cargo ship. MMSI: 304052000.

Date/timePositionNaut miles runAvg speedWind from/ knotsBaromVisibWave heightAir tempDewpointWater temp
2018-Aug-15 02:16N 51°50' W 007°04'1110.0
2018-Aug-15 01:10N 51°39' W 007°07'210.1
2018-Aug-15 01:00N 51°37' W 007°08'510.1
2018-Aug-15 00:30N 51°32' W 007°09'7810.3
2018-Aug-14 16:55N 50°15' W 007°34'  
2018-Aug-11 23:55N 39°44' W 009°43'4 9.6
2018-Aug-11 23:30N 39°40' W 009°43'5 9.5
2018-Aug-11 23:00N 39°35' W 009°43'5 9.3
2018-Aug-11 22:30N 39°30' W 009°43'5 9.0
2018-Aug-11 21:59N 39°26' W 009°43'5 8.7
2018-Aug-11 21:23N 39°21' W 009°43'4 8.9
2018-Aug-11 20:59N 39°17' W 009°43'4 8.9
2018-Aug-11 20:30N 39°13' W 009°43'5 9.1
2018-Aug-11 20:00N 39°08' W 009°42'4 8.9
2018-Aug-11 19:30N 39°04' W 009°42'4 8.6
2018-Aug-11 19:00N 38°59' W 009°42'4 8.7
2018-Aug-11 18:31N 38°55' W 009°42'4 8.9
2018-Aug-11 18:00N 38°51' W 009°42'4 8.3
2018-Aug-11 17:31N 38°46' W 009°42'4 8.2
2018-Aug-11 17:00N 38°42' W 009°41'4 7.5
2018-Aug-11 16:30N 38°39' W 009°39'5 9.4
2018-Aug-11 16:01N 38°38' W 009°33'5 9.1
2018-Aug-11 15:30N 38°37' W 009°27'4 8.6
2018-Aug-11 15:00N 38°38' W 009°22'5 9.1
2018-Aug-11 14:30N 38°41' W 009°17'4 7.8
2018-Aug-11 14:00N 38°41' W 009°12'4 7.5
2018-Aug-11 13:30N 38°42' W 009°08'3 5.1
2018-Aug-11 13:00N 38°44' W 009°06'0 0.0
2018-Aug-11 12:23N 38°44' W 009°06'0 0.0
2018-Aug-11 11:59N 38°44' W 009°06'0 0.0
2018-Aug-11 11:29N 38°44' W 009°06'0 0.0
2018-Aug-11 10:59N 38°44' W 009°06'0 0.0
2018-Aug-11 10:29N 38°44' W 009°06'0 0.0
2018-Aug-11 09:59N 38°44' W 009°06'0 0.0
2018-Aug-11 09:26N 38°44' W 009°06'0 0.0
2018-Aug-11 08:44N 38°44' W 009°06'0 0.0
2018-Aug-11 08:29N 38°44' W 009°06'0 0.0
2018-Aug-11 07:59N 38°44' W 009°06'0 0.0
2018-Aug-11 07:26N 38°44' W 009°06'0 0.0
2018-Aug-11 06:53N 38°44' W 009°06'0 0.0
2018-Aug-11 05:47N 38°44' W 009°06'0 0.0
2018-Aug-11 05:23N 38°44' W 009°06'0 0.0
2018-Aug-11 04:56N 38°44' W 009°06'0 0.0
2018-Aug-11 04:23N 38°44' W 009°06'0 0.0
2018-Aug-11 03:47N 38°44' W 009°06'0 0.0
2018-Aug-11 02:44N 38°44' W 009°06'0 0.0
2018-Aug-11 02:20N 38°44' W 009°06'0 0.0
2018-Aug-11 01:44N 38°44' W 009°06'0 0.0
2018-Aug-11 00:20N 38°44' W 009°06'0 0.0
2018-Aug-10 23:59N 38°44' W 009°06'0 0.0
2018-Aug-10 23:11N 38°44' W 009°06'0 0.0
2018-Aug-10 22:59N 38°44' W 009°06'0 0.0
2018-Aug-10 22:29N 38°44' W 009°06'0 0.0
2018-Aug-10 21:59N 38°44' W 009°06'0 0.0
2018-Aug-10 21:29N 38°44' W 009°06'0 0.0
2018-Aug-10 20:56N 38°44' W 009°06'0 0.0
2018-Aug-10 20:08N 38°44' W 009°06'0 0.0
2018-Aug-10 19:59N 38°44' W 009°06'0 0.0
2018-Aug-10 19:29N 38°44' W 009°06'0 0.0
2018-Aug-10 18:59N 38°44' W 009°06'0 0.0
2018-Aug-10 18:29N 38°44' W 009°06'0 0.0
2018-Aug-10 17:32N 38°44' W 009°06'0 0.0
2018-Aug-10 17:20N 38°44' W 009°06'0 0.0
2018-Aug-10 16:59N 38°44' W 009°06'0 0.0
2018-Aug-10 16:29N 38°44' W 009°06'0 0.0
2018-Aug-10 15:59N 38°44' W 009°06'0 0.0
2018-Aug-10 15:29N 38°44' W 009°06'0 0.0
2018-Aug-10 14:59N 38°44' W 009°06'0 0.0
2018-Aug-10 14:26N 38°44' W 009°06'0 0.0
2018-Aug-10 13:59N 38°44' W 009°06'0 0.0
2018-Aug-10 13:29N 38°44' W 009°06'0 0.0
2018-Aug-10 12:59N 38°44' W 009°06'0 0.0
2018-Aug-10 12:29N 38°44' W 009°06'0 0.0
2018-Aug-10 11:53N 38°44' W 009°06'0 0.0
2018-Aug-10 11:26N 38°44' W 009°06'0 0.0
2018-Aug-10 10:53N 38°44' W 009°06'0 0.0
2018-Aug-10 10:29N 38°44' W 009°06'0 0.0
2018-Aug-10 09:59N 38°44' W 009°06'0 0.0
2018-Aug-10 09:29N 38°44' W 009°06'0 0.0
2018-Aug-10 08:59N 38°44' W 009°06'0 0.0
2018-Aug-10 08:26N 38°44' W 009°06'0 0.0
2018-Aug-10 07:50N 38°44' W 009°06'0 0.0
2018-Aug-10 07:26N 38°44' W 009°06'0 0.0
2018-Aug-10 06:59N 38°44' W 009°06'0 0.0
2018-Aug-10 06:29N 38°44' W 009°06'0 0.0
2018-Aug-10 05:59N 38°44' W 009°06'0 0.0
2018-Aug-10 05:26N 38°44' W 009°06'0 0.0
2018-Aug-10 04:59N 38°44' W 009°06'0 0.0
2018-Aug-10 04:29N 38°44' W 009°06'0 0.0
2018-Aug-10 03:59N 38°44' W 009°06'0 0.0
2018-Aug-10 03:29N 38°44' W 009°06'0 0.0
2018-Aug-10 02:59N 38°44' W 009°06'0 0.0
2018-Aug-10 02:29N 38°44' W 009°06'0 0.0
2018-Aug-10 01:56N 38°44' W 009°06'0 0.0
2018-Aug-10 01:26N 38°44' W 009°06'0 0.0
2018-Aug-10 00:59N 38°44' W 009°06'0 0.0
2018-Aug-10 00:29N 38°44' W 009°06'0 0.0
2018-Aug-09 23:56N 38°44' W 009°06'0 0.0
2018-Aug-09 23:29N 38°44' W 009°06'0 0.0
2018-Aug-09 22:56N 38°44' W 009°06'0 0.0
2018-Aug-09 22:26N 38°44' W 009°06'0 0.0
2018-Aug-09 21:59N 38°44' W 009°06'0 0.0
2018-Aug-09 21:29N 38°44' W 009°06'0 0.0
2018-Aug-09 20:05N 38°44' W 009°06'0 0.0
2018-Aug-09 19:53N 38°44' W 009°06'0 0.0
2018-Aug-09 18:35N 38°44' W 009°06'0 0.0
2018-Aug-09 17:29N 38°44' W 009°06'0 0.0
2018-Aug-09 16:47N 38°44' W 009°06'0 0.0
2018-Aug-09 16:26N 38°44' W 009°06'0 0.0
2018-Aug-09 15:59N 38°44' W 009°06'0 0.0
2018-Aug-09 15:29N 38°44' W 009°06'0 0.0
2018-Aug-09 14:38N 38°44' W 009°06'0 0.0
2018-Aug-09 14:29N 38°44' W 009°06'0 0.0
2018-Aug-09 13:53N 38°44' W 009°06'0 0.0
2018-Aug-09 13:11N 38°44' W 009°06'0 0.0
2018-Aug-09 12:59N 38°44' W 009°06'0 0.0
2018-Aug-09 09:17N 38°44' W 009°06'0 0.0
2018-Aug-09 08:59N 38°44' W 009°06'0 0.0
2018-Aug-09 07:35N 38°44' W 009°06'0 0.0
2018-Aug-08 22:44N 38°44' W 009°06'0 0.0
2018-Aug-08 22:17N 38°44' W 009°06'0 0.0
2018-Aug-08 21:53N 38°44' W 009°06'0 0.0
2018-Aug-08 21:26N 38°44' W 009°06'0 0.0
2018-Aug-08 19:23N 38°44' W 009°06'0 0.0
2018-Aug-08 18:53N 38°44' W 009°06'0 0.0
2018-Aug-08 18:29N 38°44' W 009°06'0 0.0
2018-Aug-08 17:59N 38°44' W 009°06'0 0.0
2018-Aug-08 17:29N 38°44' W 009°06'0 0.0
2018-Aug-08 16:26N 38°44' W 009°06'0 0.0
2018-Aug-08 15:59N 38°44' W 009°06'0 0.0
2018-Aug-08 15:29N 38°44' W 009°06'0 0.0
2018-Aug-08 14:59N 38°44' W 009°06'0 0.0
2018-Aug-08 14:29N 38°44' W 009°06'2 3.7
2018-Aug-08 14:00N 38°43' W 009°07'5 9.4
2018-Aug-08 13:28N 38°41' W 009°13'3 7.1
2018-Aug-08 13:00N 38°41' W 009°18'5 9.5
2018-Aug-08 12:30N 38°37' W 009°22'5 9.1
2018-Aug-08 12:00N 38°33' W 009°24'510.0
2018-Aug-08 11:30N 38°28' W 009°23'510.0
2018-Aug-08 11:00N 38°23' W 009°24'510.0
2018-Aug-08 10:30N 38°18' W 009°24'510.0
2018-Aug-08 09:59N 38°13' W 009°23'5 9.7
2018-Aug-08 09:30N 38°08' W 009°23'5 9.7
2018-Aug-08 09:00N 38°03' W 009°23'5 9.8
2018-Aug-08 08:30N 37°58' W 009°23'510.0
2018-Aug-08 08:00N 37°54' W 009°23'5 9.9
2018-Aug-08 07:29N 37°48' W 009°23'5 9.7
2018-Aug-08 06:59N 37°43' W 009°22'7 9.7
2018-Aug-08 06:18N 37°37' W 009°22'15 8.7
2018-Aug-08 04:34N 37°22' W 009°21'2 7.3
2018-Aug-08 04:14N 37°19' W 009°21'35 6.2
2018-Aug-07 22:32N 36°46' W 009°09'0 6.3
2018-Aug-07 22:29N 36°45' W 009°08'4 7.5
2018-Aug-07 22:00N 36°44' W 009°04'12 8.5
2018-Aug-07 20:37N 36°44' W 008°49'1 8.4
2018-Aug-07 20:29N 36°44' W 008°48'4 8.1
2018-Aug-07 20:00N 36°44' W 008°43'4 8.5
2018-Aug-07 19:30N 36°44' W 008°38'4 8.7
2018-Aug-07 19:00N 36°44' W 008°32'5 9.3
2018-Aug-07 18:30N 36°44' W 008°26'5 9.1
2018-Aug-07 17:59N 36°44' W 008°21'11 8.8
2018-Aug-07 16:43N 36°44' W 008°07'3 8.6
2018-Aug-07 16:22N 36°45' W 008°03'3 8.7
2018-Aug-07 16:00N 36°45' W 007°59'  

Dump ship's entire track history